createdAt,value
2022-12-15T00:00:12.382Z,7.80
2022-12-15T00:03:25.944Z,7.20
2022-12-15T00:06:12.476Z,10.30
2022-12-15T00:08:58.894Z,14.90
2022-12-15T00:11:45.054Z,13.70
2022-12-15T00:14:31.647Z,13.40
2022-12-15T00:17:17.732Z,8.70
2022-12-15T00:20:04.170Z,12.30
2022-12-15T00:22:50.599Z,12.30
2022-12-15T00:25:37.213Z,14.80
2022-12-15T00:28:23.841Z,13.00
2022-12-15T00:31:10.328Z,13.50
2022-12-15T00:33:56.717Z,14.30
2022-12-15T00:36:42.994Z,7.80
2022-12-15T00:39:10.667Z,13.10
2022-12-15T00:41:38.327Z,11.10
2022-12-15T00:44:05.935Z,13.90
2022-12-15T00:46:52.258Z,11.60
2022-12-15T00:49:46.127Z,11.80
2022-12-15T00:52:33.971Z,13.00
2022-12-15T00:55:20.902Z,9.70
2022-12-15T00:58:07.058Z,5.70
2022-12-15T01:00:53.413Z,7.60
2022-12-15T01:03:42.450Z,8.50
2022-12-15T01:06:32.371Z,12.30
2022-12-15T01:09:20.020Z,11.60
2022-12-15T01:12:06.262Z,9.30
2022-12-15T01:14:52.944Z,7.10
2022-12-15T01:17:40.015Z,15.40
2022-12-15T01:20:21.095Z,13.60
2022-12-15T01:22:52.887Z,13.90
2022-12-15T01:25:23.673Z,12.80
2022-12-15T01:27:52.309Z,13.30
2022-12-15T01:30:23.037Z,12.50
2022-12-15T01:32:51.322Z,11.90
2022-12-15T01:35:20.308Z,13.40
2022-12-15T01:37:50.044Z,12.30
2022-12-15T01:40:38.409Z,11.80
2022-12-15T01:43:18.761Z,9.50
2022-12-15T01:46:01.021Z,12.60
2022-12-15T01:48:34.482Z,17.30
2022-12-15T01:51:11.463Z,21.60
2022-12-15T01:54:05.068Z,23.10
2022-12-15T01:56:38.316Z,24.00
2022-12-15T01:59:10.574Z,14.20
2022-12-15T02:01:38.434Z,14.20
2022-12-15T02:04:07.933Z,13.40
2022-12-15T02:06:36.531Z,12.70
2022-12-15T02:09:05.074Z,11.40
2022-12-15T02:11:35.487Z,11.20
2022-12-15T02:14:06.462Z,10.20
2022-12-15T02:16:57.162Z,10.50
2022-12-15T02:19:34.276Z,13.40
2022-12-15T02:22:08.023Z,11.70
2022-12-15T02:24:58.094Z,13.20
2022-12-15T02:27:53.207Z,14.90
2022-12-15T02:30:45.182Z,15.10
2022-12-15T02:33:27.615Z,15.30
2022-12-15T02:36:05.475Z,12.90
2022-12-15T02:38:38.080Z,14.80
2022-12-15T02:41:06.676Z,14.40
2022-12-15T02:43:38.794Z,13.20
2022-12-15T02:46:27.125Z,14.30
2022-12-15T02:49:15.042Z,13.30
2022-12-15T02:52:11.917Z,11.90
2022-12-15T02:55:03.259Z,14.30
2022-12-15T02:57:55.202Z,13.70
2022-12-15T03:00:23.101Z,13.60
2022-12-15T03:02:55.509Z,13.90
2022-12-15T03:05:24.623Z,12.70
2022-12-15T03:07:54.581Z,11.50
2022-12-15T03:12:51.816Z,11.90
2022-12-15T03:15:19.529Z,9.40
2022-12-15T03:17:47.243Z,11.00
2022-12-15T03:20:15.869Z,9.40
2022-12-15T03:22:44.701Z,9.00
2022-12-15T03:25:12.380Z,14.00
2022-12-15T03:27:40.050Z,13.10
2022-12-15T03:30:08.340Z,13.10
2022-12-15T03:32:36.002Z,14.90
2022-12-15T03:35:04.096Z,13.90
2022-12-15T03:37:31.743Z,13.60
2022-12-15T03:39:59.484Z,15.00
2022-12-15T03:42:45.596Z,15.70
2022-12-15T03:45:13.260Z,18.40
2022-12-15T03:47:42.142Z,13.70
2022-12-15T03:50:11.068Z,13.80
2022-12-15T03:52:38.730Z,15.00
2022-12-15T03:55:07.599Z,14.40
2022-12-15T03:57:35.293Z,13.40
2022-12-15T04:00:04.778Z,12.50
2022-12-15T04:02:41.210Z,12.90
2022-12-15T04:05:33.458Z,13.30
2022-12-15T04:08:01.895Z,11.10
2022-12-15T04:10:34.647Z,11.40
2022-12-15T04:13:05.770Z,15.30
2022-12-15T04:15:34.752Z,16.80
2022-12-15T04:18:03.732Z,17.80
2022-12-15T04:20:33.081Z,17.80
2022-12-15T04:23:01.103Z,22.00
2022-12-15T04:25:47.840Z,24.50
2022-12-15T04:28:34.084Z,15.40
2022-12-15T04:31:34.079Z,14.10
2022-12-15T04:34:23.760Z,13.80
2022-12-15T04:37:12.058Z,13.20
2022-12-15T04:40:01.282Z,11.10
2022-12-15T04:42:50.117Z,10.70
2022-12-15T04:45:40.287Z,12.10
2022-12-15T04:48:26.645Z,12.00
2022-12-15T04:51:13.118Z,7.90
2022-12-15T04:54:01.892Z,11.20
2022-12-15T04:56:49.872Z,10.60
2022-12-15T04:59:37.142Z,19.60
2022-12-15T05:02:23.700Z,21.60
2022-12-15T05:05:10.264Z,20.80
2022-12-15T05:07:56.452Z,19.10
2022-12-15T05:10:42.729Z,18.60
2022-12-15T05:13:29.368Z,17.00
2022-12-15T05:16:15.980Z,16.60
2022-12-15T05:19:02.152Z,14.70
2022-12-15T05:21:48.225Z,10.30
2022-12-15T05:24:34.679Z,11.60
2022-12-15T05:27:21.121Z,10.80
2022-12-15T05:30:07.665Z,8.00
2022-12-15T05:32:35.294Z,12.70
2022-12-15T05:35:02.951Z,12.60
2022-12-15T05:37:30.625Z,9.20
2022-12-15T05:39:58.323Z,11.40
2022-12-15T05:42:25.935Z,14.90
2022-12-15T05:44:53.559Z,16.10
2022-12-15T05:47:21.224Z,16.00
2022-12-15T05:49:49.257Z,16.00
2022-12-15T05:52:17.092Z,18.40
2022-12-15T05:54:44.747Z,17.50
2022-12-15T05:57:12.435Z,18.20
2022-12-15T05:59:40.095Z,16.50
2022-12-15T06:02:07.726Z,17.40
2022-12-15T06:04:35.996Z,14.90
2022-12-15T06:07:03.724Z,13.60
2022-12-15T06:09:31.423Z,15.90
2022-12-15T06:11:59.199Z,15.70
2022-12-15T06:14:26.785Z,13.20
2022-12-15T06:16:54.506Z,14.70
2022-12-15T06:19:22.166Z,14.40
2022-12-15T06:21:49.900Z,15.80
2022-12-15T06:24:17.853Z,17.40
2022-12-15T06:26:46.001Z,15.10
2022-12-15T06:29:18.570Z,18.10
2022-12-15T06:31:46.801Z,17.20
2022-12-15T06:34:16.725Z,17.50
2022-12-15T06:36:44.462Z,20.70
2022-12-15T06:39:16.481Z,19.00
2022-12-15T06:41:44.558Z,18.40
2022-12-15T06:44:15.011Z,14.60
2022-12-15T06:46:43.316Z,12.90
2022-12-15T06:49:10.948Z,18.10
2022-12-15T06:51:38.702Z,18.10
2022-12-15T06:54:06.318Z,16.70
2022-12-15T06:56:36.204Z,17.70
2022-12-15T06:59:05.457Z,16.00
2022-12-15T07:01:33.451Z,16.30
2022-12-15T07:04:02.847Z,20.90
2022-12-15T07:06:38.332Z,18.70
2022-12-15T07:09:13.800Z,28.30
2022-12-15T07:11:41.537Z,28.20
2022-12-15T07:14:10.101Z,21.20
2022-12-15T07:16:38.005Z,21.50
2022-12-15T07:19:05.857Z,24.40
2022-12-15T07:21:33.476Z,19.90
2022-12-15T07:24:02.189Z,17.10
2022-12-15T07:26:30.536Z,17.60
2022-12-15T07:28:58.298Z,16.50
2022-12-15T07:31:25.993Z,16.10
2022-12-15T07:33:54.711Z,15.10
2022-12-15T07:36:22.730Z,15.90
2022-12-15T07:38:51.553Z,17.60
2022-12-15T07:41:20.320Z,21.60
2022-12-15T07:43:48.543Z,18.50
2022-12-15T07:46:16.908Z,19.40
2022-12-15T07:48:50.419Z,25.30
2022-12-15T07:51:20.360Z,28.50
2022-12-15T07:53:50.206Z,18.40
2022-12-15T07:56:19.722Z,19.90
2022-12-15T07:58:47.916Z,18.70
2022-12-15T08:01:16.044Z,19.40
2022-12-15T08:03:44.905Z,19.60
2022-12-15T08:06:14.491Z,18.90
2022-12-15T08:08:45.004Z,16.30
2022-12-15T08:11:21.203Z,13.50
2022-12-15T08:14:02.542Z,14.60
2022-12-15T08:16:33.285Z,19.70
2022-12-15T08:19:01.218Z,14.60
2022-12-15T08:21:31.203Z,17.50
2022-12-15T08:24:00.871Z,9.90
2022-12-15T08:26:31.029Z,21.60
2022-12-15T08:31:54.078Z,12.30
2022-12-15T08:34:22.176Z,19.10
2022-12-15T08:36:50.630Z,10.90
2022-12-15T08:39:18.367Z,19.90
2022-12-15T08:41:46.241Z,22.00
2022-12-15T08:44:13.964Z,13.80
2022-12-15T08:46:41.706Z,12.40
2022-12-15T08:49:10.213Z,12.20
2022-12-15T08:51:37.932Z,15.40
2022-12-15T08:54:05.636Z,12.90
2022-12-15T08:56:33.312Z,14.40
2022-12-15T08:59:02.220Z,11.30
2022-12-15T09:01:32.406Z,16.90
2022-12-15T09:04:01.326Z,19.50
2022-12-15T09:06:32.012Z,17.80
2022-12-15T09:09:03.156Z,18.60
2022-12-15T09:11:31.393Z,10.80
2022-12-15T09:13:59.136Z,21.10
2022-12-15T09:16:27.883Z,11.00
2022-12-15T09:18:58.037Z,17.30
2022-12-15T09:24:00.531Z,11.80
2022-12-15T09:26:31.190Z,16.20
2022-12-15T09:28:59.237Z,16.50
2022-12-15T09:31:29.865Z,8.30
2022-12-15T09:33:59.738Z,17.10
2022-12-15T09:36:28.515Z,15.20
2022-12-15T09:38:56.323Z,18.40
2022-12-15T09:41:27.183Z,15.40
2022-12-15T09:43:58.988Z,16.80
2022-12-15T09:46:50.357Z,13.60
2022-12-15T09:49:38.073Z,13.50
2022-12-15T09:52:29.154Z,14.40
2022-12-15T09:55:01.753Z,18.40
2022-12-15T09:57:53.068Z,19.60
2022-12-15T10:00:33.109Z,17.90
2022-12-15T10:03:01.044Z,16.30
2022-12-15T10:06:14.541Z,17.10
2022-12-15T10:08:43.845Z,16.30
2022-12-15T10:11:20.361Z,10.30
2022-12-15T10:14:26.007Z,12.60
2022-12-15T10:17:12.092Z,15.40
2022-12-15T10:19:52.020Z,14.00
2022-12-15T10:22:24.940Z,5.60
2022-12-15T10:25:11.127Z,11.40
2022-12-15T10:28:17.859Z,19.20
2022-12-15T10:31:02.234Z,19.00
2022-12-15T10:33:39.522Z,21.20
2022-12-15T10:36:14.916Z,19.20
2022-12-15T10:38:47.352Z,17.80
2022-12-15T10:41:23.333Z,20.30
2022-12-15T10:43:52.526Z,9.60
2022-12-15T10:46:22.797Z,19.90
2022-12-15T10:49:07.084Z,18.20
2022-12-15T10:51:51.251Z,18.80
2022-12-15T10:54:19.022Z,19.70
2022-12-15T10:56:58.157Z,17.60
2022-12-15T10:59:31.706Z,19.00
2022-12-15T11:02:26.149Z,16.70
2022-12-15T11:07:42.711Z,19.70
2022-12-15T11:10:50.566Z,20.30
2022-12-15T11:13:22.480Z,11.10
2022-12-15T11:15:53.066Z,17.40
2022-12-15T11:18:41.971Z,8.80
2022-12-15T11:21:18.595Z,13.80
2022-12-15T11:23:52.370Z,21.80
2022-12-15T11:26:58.675Z,14.80
2022-12-15T11:29:34.472Z,10.60
2022-12-15T11:32:06.910Z,20.10
2022-12-15T11:34:44.244Z,8.10
2022-12-15T11:37:36.504Z,21.10
2022-12-15T11:40:40.106Z,11.60
2022-12-15T11:43:45.671Z,19.60
2022-12-15T11:46:24.331Z,13.80
2022-12-15T11:48:58.090Z,22.20
2022-12-15T11:51:49.964Z,20.80
2022-12-15T11:54:42.630Z,23.50
2022-12-15T11:57:22.276Z,24.00
2022-12-15T12:00:28.339Z,23.40
2022-12-15T12:03:16.265Z,22.50
2022-12-15T12:06:29.343Z,21.50
2022-12-15T12:09:07.350Z,16.00
2022-12-15T12:11:43.806Z,18.00
2022-12-15T12:14:30.216Z,21.70
2022-12-15T12:17:11.496Z,17.90
2022-12-15T12:19:58.003Z,17.40
2022-12-15T12:22:40.780Z,15.10
2022-12-15T12:25:20.759Z,10.40
2022-12-15T12:27:52.965Z,14.70
2022-12-15T12:30:25.066Z,23.50
2022-12-15T12:33:02.031Z,21.60
2022-12-15T12:35:55.261Z,24.40
2022-12-15T12:38:31.306Z,14.60
2022-12-15T12:41:18.909Z,15.80
2022-12-15T12:43:58.880Z,37.70
2022-12-15T12:46:48.777Z,19.30
2022-12-15T12:49:26.897Z,13.30
2022-12-15T12:51:58.662Z,20.40
2022-12-15T12:54:35.312Z,16.60
2022-12-15T12:57:31.875Z,22.20
2022-12-15T13:00:13.026Z,7.80
2022-12-15T13:02:50.504Z,13.80
2022-12-15T13:05:37.215Z,6.80
2022-12-15T13:08:10.852Z,9.30
2022-12-15T13:10:41.284Z,11.60
2022-12-15T13:13:27.745Z,15.50
2022-12-15T13:16:27.623Z,8.80
2022-12-15T13:19:09.007Z,18.20
2022-12-15T13:21:45.150Z,13.50
2022-12-15T13:24:26.074Z,16.70
2022-12-15T13:27:04.221Z,17.00
2022-12-15T13:29:35.018Z,16.10
2022-12-15T13:32:03.914Z,14.70
2022-12-15T13:34:38.991Z,11.40
2022-12-15T13:37:45.631Z,13.80
2022-12-15T13:40:22.701Z,17.30
2022-12-15T13:43:05.885Z,15.10
2022-12-15T13:45:44.222Z,18.10
2022-12-15T13:48:44.409Z,14.10
2022-12-15T13:51:14.919Z,14.20
2022-12-15T13:53:51.629Z,17.40
2022-12-15T13:56:23.402Z,12.60
2022-12-15T13:59:00.721Z,13.60
2022-12-15T14:01:32.980Z,16.00
2022-12-15T14:04:17.921Z,8.70
2022-12-15T14:06:53.676Z,17.80
2022-12-15T14:09:29.484Z,20.50
2022-12-15T14:11:57.917Z,20.10
2022-12-15T14:14:29.732Z,17.90
2022-12-15T14:17:18.014Z,11.80
2022-12-15T14:19:50.889Z,13.90
2022-12-15T14:22:28.512Z,21.90
2022-12-15T14:25:14.130Z,17.00
2022-12-15T14:27:42.040Z,7.10
2022-12-15T14:30:26.803Z,7.50
2022-12-15T14:32:59.610Z,9.40
2022-12-15T14:35:32.109Z,15.30
2022-12-15T14:38:02.762Z,15.10
2022-12-15T14:40:31.232Z,13.60
2022-12-15T14:42:59.444Z,10.00
2022-12-15T14:45:31.212Z,4.20
2022-12-15T14:51:02.601Z,12.10
2022-12-15T14:53:38.033Z,19.50
2022-12-15T14:56:27.612Z,18.10
2022-12-15T14:59:18.101Z,19.60
2022-12-15T15:01:59.612Z,21.00
2022-12-15T15:04:32.442Z,20.50
2022-12-15T15:07:06.231Z,18.80
2022-12-15T15:09:40.660Z,17.50
2022-12-15T15:12:18.194Z,15.80
2022-12-15T15:14:58.012Z,8.80
2022-12-15T15:17:31.001Z,11.20
2022-12-15T15:20:17.455Z,16.80
2022-12-15T15:22:46.710Z,14.70
2022-12-15T15:25:28.316Z,11.70
2022-12-15T15:28:17.939Z,10.30
2022-12-15T15:30:56.556Z,19.80
2022-12-15T15:33:25.177Z,20.60
2022-12-15T15:35:56.119Z,19.70
2022-12-15T15:38:26.917Z,18.60
2022-12-15T15:41:00.413Z,19.80
2022-12-15T15:43:28.963Z,19.90
2022-12-15T15:46:08.251Z,19.00
2022-12-15T15:48:41.704Z,18.80
2022-12-15T15:51:09.460Z,19.20
2022-12-15T15:53:37.734Z,19.30
2022-12-15T15:56:08.876Z,21.30
2022-12-15T15:58:36.890Z,19.30
2022-12-15T16:01:09.518Z,18.90
2022-12-15T16:03:41.299Z,20.50
2022-12-15T16:06:19.388Z,18.40
2022-12-15T16:08:50.121Z,19.60
2022-12-15T16:11:18.028Z,20.10
2022-12-15T16:13:45.929Z,20.20
2022-12-15T16:16:19.740Z,19.60
2022-12-15T16:18:47.657Z,15.50
2022-12-15T16:21:16.772Z,17.40
2022-12-15T16:23:47.702Z,16.00
2022-12-15T16:26:19.599Z,17.10
2022-12-15T16:28:48.899Z,15.70
2022-12-15T16:31:37.289Z,15.90
2022-12-15T16:34:08.626Z,14.70
2022-12-15T16:36:36.525Z,14.60
2022-12-15T16:39:04.690Z,15.50
2022-12-15T16:41:32.853Z,15.40
2022-12-15T16:44:00.487Z,16.20
2022-12-15T16:46:28.218Z,17.00
2022-12-15T16:48:55.992Z,17.00
2022-12-15T16:51:23.628Z,18.10
2022-12-15T16:53:51.263Z,15.90
2022-12-15T16:56:19.256Z,18.80
2022-12-15T16:58:48.895Z,17.90
2022-12-15T17:01:22.143Z,17.90
2022-12-15T17:03:50.051Z,19.20
2022-12-15T17:06:17.853Z,20.40
2022-12-15T17:08:54.136Z,18.80
2022-12-15T17:11:24.565Z,17.00
2022-12-15T17:13:55.710Z,17.40
2022-12-15T17:16:25.783Z,13.20
2022-12-15T17:18:54.341Z,15.50
2022-12-15T17:21:53.230Z,14.30
2022-12-15T17:24:22.349Z,15.60
2022-12-15T17:26:50.649Z,14.80
2022-12-15T17:29:23.451Z,10.80
2022-12-15T17:31:51.335Z,17.40
2022-12-15T17:34:27.209Z,18.20
2022-12-15T17:36:56.672Z,18.10
2022-12-15T17:39:25.788Z,19.50
2022-12-15T17:42:02.724Z,21.60
2022-12-15T17:44:36.925Z,18.30
2022-12-15T17:47:07.836Z,19.20
2022-12-15T17:49:38.012Z,19.80
2022-12-15T17:52:09.182Z,20.90
2022-12-15T17:54:36.927Z,21.90
2022-12-15T17:57:04.642Z,20.20
2022-12-15T17:59:32.317Z,20.80
2022-12-15T18:02:00.092Z,19.40
2022-12-15T18:04:27.969Z,19.40
2022-12-15T18:07:01.456Z,19.40
2022-12-15T18:09:30.052Z,18.50
2022-12-15T18:11:58.113Z,20.10
2022-12-15T18:14:27.421Z,18.10
2022-12-15T18:16:55.372Z,18.20
2022-12-15T18:19:23.424Z,18.10
2022-12-15T18:21:51.108Z,16.30
2022-12-15T18:24:21.636Z,12.80
2022-12-15T18:26:49.303Z,21.50
2022-12-15T18:29:18.226Z,23.60
2022-12-15T18:31:48.357Z,20.90
2022-12-15T18:34:18.893Z,24.00
2022-12-15T18:36:46.714Z,28.20
2022-12-15T18:39:23.249Z,22.50
2022-12-15T18:41:52.529Z,24.60
2022-12-15T18:44:26.074Z,23.10
2022-12-15T18:46:55.098Z,25.40
2022-12-15T18:49:23.796Z,21.20
2022-12-15T18:51:51.724Z,19.40
2022-12-15T18:54:22.212Z,20.50
2022-12-15T18:56:50.532Z,20.90
2022-12-15T18:59:19.455Z,18.50
2022-12-15T19:01:48.730Z,14.70
2022-12-15T19:04:16.783Z,14.40
2022-12-15T19:06:45.030Z,13.60
2022-12-15T19:09:21.756Z,13.90
2022-12-15T19:12:09.008Z,14.80
2022-12-15T19:14:42.995Z,13.60
2022-12-15T19:17:31.531Z,13.50
2022-12-15T19:20:17.894Z,15.70
2022-12-15T19:22:47.788Z,18.60
2022-12-15T19:25:25.372Z,18.90
2022-12-15T19:28:01.029Z,18.00
2022-12-15T19:30:36.921Z,18.10
2022-12-15T19:33:08.081Z,18.60
2022-12-15T19:35:37.189Z,16.40
2022-12-15T19:38:06.599Z,18.10
2022-12-15T19:40:37.531Z,24.50
2022-12-15T19:43:05.483Z,22.40
2022-12-15T19:45:33.716Z,17.30
2022-12-15T19:48:01.480Z,17.80
2022-12-15T19:50:33.327Z,17.60
2022-12-15T19:53:03.532Z,18.60
2022-12-15T19:55:34.156Z,19.80
2022-12-15T19:58:27.512Z,20.60
2022-12-15T20:00:58.449Z,17.70
2022-12-15T20:03:27.404Z,16.30
2022-12-15T20:05:57.324Z,15.80
2022-12-15T20:08:28.168Z,14.50
2022-12-15T20:10:56.502Z,14.20
2022-12-15T20:13:26.414Z,14.20
2022-12-15T20:15:55.013Z,19.80
2022-12-15T20:18:22.793Z,22.40
2022-12-15T20:20:50.840Z,17.50
2022-12-15T20:23:27.750Z,18.10
2022-12-15T20:25:56.184Z,17.20
2022-12-15T20:28:27.269Z,18.30
2022-12-15T20:30:56.678Z,17.10
2022-12-15T20:33:24.573Z,15.80
2022-12-15T20:35:52.834Z,15.10
2022-12-15T20:38:28.806Z,15.90
2022-12-15T20:40:57.550Z,17.30
2022-12-15T20:43:26.550Z,16.80
2022-12-15T20:46:05.234Z,15.20
2022-12-15T20:48:36.618Z,14.40
2022-12-15T20:51:09.463Z,15.20
2022-12-15T20:53:39.080Z,19.20
2022-12-15T20:56:07.309Z,20.10
2022-12-15T20:58:41.224Z,19.20
2022-12-15T21:01:24.581Z,19.10
2022-12-15T21:03:55.873Z,20.40
2022-12-15T21:06:25.099Z,17.40
2022-12-15T21:08:53.209Z,18.80
2022-12-15T21:11:26.157Z,20.90
2022-12-15T21:13:56.772Z,17.50
2022-12-15T21:16:28.198Z,17.90
2022-12-15T21:19:20.221Z,18.60
2022-12-15T21:21:46.524Z,20.40
2022-12-15T21:24:22.707Z,22.50
2022-12-15T21:26:51.444Z,21.50
2022-12-15T21:29:24.784Z,21.00
2022-12-15T21:31:52.817Z,22.90
2022-12-15T21:34:20.515Z,22.10
2022-12-15T21:36:52.514Z,20.90
2022-12-15T21:39:30.006Z,19.90
2022-12-15T21:41:59.993Z,20.20
2022-12-15T21:44:27.664Z,21.60
2022-12-15T21:46:55.275Z,22.50
2022-12-15T21:49:23.410Z,20.80
2022-12-15T21:51:55.124Z,20.30
2022-12-15T21:57:17.892Z,16.00
2022-12-15T21:59:45.498Z,17.30
2022-12-15T22:02:25.990Z,18.40
2022-12-15T22:04:54.832Z,17.10
2022-12-15T22:07:22.854Z,24.30
2022-12-15T22:09:51.750Z,22.70
2022-12-15T22:12:22.458Z,23.60
2022-12-15T22:14:50.216Z,22.30
2022-12-15T22:17:21.706Z,20.10
2022-12-15T22:19:49.346Z,20.50
2022-12-15T22:22:17.234Z,22.10
2022-12-15T22:24:44.948Z,20.40
2022-12-15T22:27:21.527Z,18.80
2022-12-15T22:29:50.184Z,18.30
2022-12-15T22:32:17.814Z,15.60
2022-12-15T22:34:45.485Z,18.60
2022-12-15T22:37:13.115Z,18.10
2022-12-15T22:39:40.718Z,17.80
2022-12-15T22:42:14.900Z,20.10
2022-12-15T22:44:42.583Z,18.80
2022-12-15T22:47:10.609Z,15.20
2022-12-15T22:49:40.565Z,22.80
2022-12-15T22:52:21.027Z,26.10
2022-12-15T22:54:48.717Z,24.10
2022-12-15T22:57:22.980Z,22.70
2022-12-15T23:00:00.375Z,24.00
2022-12-15T23:02:33.057Z,23.10
2022-12-15T23:05:01.929Z,28.00
2022-12-15T23:07:29.629Z,23.90
2022-12-15T23:10:17.569Z,22.80
2022-12-15T23:12:45.246Z,26.90
2022-12-15T23:15:31.594Z,21.80
2022-12-15T23:17:59.883Z,32.10
2022-12-15T23:20:27.567Z,27.10
2022-12-15T23:22:55.211Z,29.80
2022-12-15T23:25:22.863Z,26.10
2022-12-15T23:27:50.538Z,28.10
2022-12-15T23:30:18.463Z,28.10
2022-12-15T23:32:46.458Z,29.70
2022-12-15T23:35:14.635Z,30.50
2022-12-15T23:37:42.499Z,28.10
2022-12-15T23:40:10.997Z,27.60
2022-12-15T23:42:38.609Z,30.80
2022-12-15T23:45:07.106Z,28.40
2022-12-15T23:47:34.788Z,27.50
2022-12-15T23:50:02.479Z,28.60
2022-12-15T23:52:30.436Z,27.70
2022-12-15T23:54:57.995Z,26.60
2022-12-15T23:57:25.593Z,27.40
2022-12-15T23:59:53.173Z,21.30
